Zara — 5VEC6 — position and weather

sailwx.info

Track history (hours):
 
Tides and Currents Weather Stations Pressure Air Temp Water Temp Dewpoint Dewpoint Depression Visibility Wind Speed Wind Dir Waves Ship Positions

Zara

Last reported at 2018-Jun-23 00:04 UTC. Time now 2018-Jun-23 00:38 UTC.
Position N 44°01' E 029°35'.

; draft 7.7 m.

MMSI: 671741000.

Date/timePositionNaut miles runAvg speedWind from/ knotsBaromVisibWave heightAir tempDewpointWater temp
2018-Jun-23 00:04N 44°01' E 029°35'1 9.6
2018-Jun-22 23:59N 44°01' E 029°34'5 9.7
2018-Jun-22 23:30N 44°01' E 029°28'5 9.7
2018-Jun-22 23:00N 44°01' E 029°21'5 9.7
2018-Jun-22 22:30N 44°01' E 029°14'5 9.8
2018-Jun-22 22:00N 44°00' E 029°07'5 9.6
2018-Jun-22 21:30N 43°60' E 029°01'5 9.9
2018-Jun-22 21:00N 43°59' E 028°54'5 9.0
2018-Jun-22 20:30N 43°59' E 028°48'510.3
2018-Jun-22 20:00N 44°04' E 028°44'3 6.8
2018-Jun-22 19:30N 44°06' E 028°41'0 1.0
2018-Jun-22 19:00N 44°06' E 028°40'0 0.0
2018-Jun-22 18:30N 44°06' E 028°40'0 0.0
2018-Jun-22 18:00N 44°06' E 028°40'0 0.0
2018-Jun-22 17:27N 44°06' E 028°40'0 0.0
2018-Jun-22 17:00N 44°06' E 028°40'0 0.0
2018-Jun-22 16:30N 44°06' E 028°40'0 0.0
2018-Jun-22 15:57N 44°06' E 028°40'0 0.0
2018-Jun-22 15:27N 44°06' E 028°40'0 0.0
2018-Jun-22 15:00N 44°06' E 028°40'0 0.0
2018-Jun-22 14:30N 44°06' E 028°40'0 0.0
2018-Jun-22 14:00N 44°06' E 028°40'0 0.0
2018-Jun-22 13:30N 44°06' E 028°40'0 0.0
2018-Jun-22 13:00N 44°06' E 028°40'0 0.0
2018-Jun-22 12:30N 44°06' E 028°40'0 0.0
2018-Jun-22 12:00N 44°06' E 028°40'0 0.0
2018-Jun-22 11:30N 44°06' E 028°40'0 0.0
2018-Jun-22 11:00N 44°06' E 028°40'0 0.0
2018-Jun-22 10:30N 44°06' E 028°40'0 0.0
2018-Jun-22 10:00N 44°06' E 028°40'0 0.0
2018-Jun-22 09:30N 44°06' E 028°40'0 0.0
2018-Jun-22 09:00N 44°06' E 028°40'0 0.0
2018-Jun-22 08:30N 44°06' E 028°40'0 0.0
2018-Jun-22 08:00N 44°06' E 028°40'0 0.0
2018-Jun-22 07:30N 44°06' E 028°40'0 0.0
2018-Jun-22 07:00N 44°06' E 028°40'0 0.0
2018-Jun-22 06:27N 44°06' E 028°40'0 0.0
2018-Jun-22 06:00N 44°06' E 028°40'0 0.0
2018-Jun-22 05:30N 44°06' E 028°40'0 0.0
2018-Jun-22 05:00N 44°06' E 028°40'0 0.0
2018-Jun-22 04:30N 44°06' E 028°40'0 0.0
2018-Jun-22 04:00N 44°06' E 028°40'0 0.0
2018-Jun-22 03:30N 44°06' E 028°40'0 0.0
2018-Jun-22 03:00N 44°06' E 028°40'0 0.0
2018-Jun-22 02:27N 44°06' E 028°40'0 0.0
2018-Jun-22 02:00N 44°06' E 028°40'0 0.0
2018-Jun-22 01:30N 44°06' E 028°40'0 0.0
2018-Jun-22 01:00N 44°06' E 028°40'0 0.0
2018-Jun-22 00:30N 44°06' E 028°40'0 0.0
2018-Jun-22 00:00N 44°06' E 028°40'0 0.0
2018-Jun-21 23:30N 44°06' E 028°40'0 0.0
2018-Jun-21 23:00N 44°06' E 028°40'0 0.0
2018-Jun-21 22:30N 44°06' E 028°40'0 0.0
2018-Jun-21 22:00N 44°06' E 028°40'0 0.0
2018-Jun-21 21:30N 44°06' E 028°40'0 0.0
2018-Jun-21 21:00N 44°06' E 028°40'0 0.0
2018-Jun-21 20:30N 44°06' E 028°40'0 0.0
2018-Jun-21 20:00N 44°06' E 028°40'0 0.0
2018-Jun-21 19:27N 44°06' E 028°40'0 0.0
2018-Jun-21 18:59N 44°06' E 028°40'0 0.0
2018-Jun-21 18:29N 44°06' E 028°40'0 0.0
2018-Jun-21 17:59N 44°06' E 028°40'0 0.0
2018-Jun-21 17:29N 44°06' E 028°40'0 0.0
2018-Jun-21 16:59N 44°06' E 028°40'0 0.0
2018-Jun-21 16:29N 44°06' E 028°40'0 0.0
2018-Jun-21 15:59N 44°06' E 028°40'0 0.0
2018-Jun-21 15:29N 44°06' E 028°40'0 0.0
2018-Jun-21 14:59N 44°06' E 028°40'0 0.0
2018-Jun-21 14:29N 44°06' E 028°40'0 0.0
2018-Jun-21 13:59N 44°06' E 028°40'0 0.0
2018-Jun-21 13:29N 44°06' E 028°40'0 0.0
2018-Jun-21 12:56N 44°06' E 028°40'0 0.0
2018-Jun-21 12:29N 44°06' E 028°40'0 0.0
2018-Jun-21 11:59N 44°06' E 028°40'0 0.0
2018-Jun-21 11:29N 44°06' E 028°40'0 0.0
2018-Jun-21 10:59N 44°06' E 028°40'0 0.0
2018-Jun-21 10:26N 44°06' E 028°40'0 0.0
2018-Jun-21 09:59N 44°06' E 028°40'0 0.0
2018-Jun-21 09:29N 44°06' E 028°40'0 0.0
2018-Jun-21 08:59N 44°06' E 028°40'0 0.0
2018-Jun-21 08:29N 44°06' E 028°40'0 0.0
2018-Jun-21 07:56N 44°06' E 028°40'0 0.0
2018-Jun-21 07:29N 44°06' E 028°40'0 0.0
2018-Jun-21 06:59N 44°06' E 028°40'0 0.0
2018-Jun-21 06:29N 44°06' E 028°40'0 0.0
2018-Jun-21 05:59N 44°06' E 028°40'0 0.0
2018-Jun-21 05:29N 44°06' E 028°40'0 0.0
2018-Jun-21 04:59N 44°06' E 028°40'0 0.0
2018-Jun-21 04:29N 44°06' E 028°40'0 0.0
2018-Jun-21 03:59N 44°06' E 028°40'0 0.0
2018-Jun-21 03:29N 44°06' E 028°40'0 0.0
2018-Jun-21 02:59N 44°06' E 028°40'0 0.0
2018-Jun-21 02:29N 44°06' E 028°40'0 0.0
2018-Jun-21 01:56N 44°06' E 028°40'0 0.0
2018-Jun-21 01:29N 44°06' E 028°40'0 0.0
2018-Jun-21 00:59N 44°06' E 028°40'0 0.0
2018-Jun-21 00:26N 44°06' E 028°40'0 0.0
2018-Jun-20 23:59N 44°06' E 028°40'0 0.0
2018-Jun-20 23:29N 44°06' E 028°40'0 0.0
2018-Jun-20 22:59N 44°06' E 028°40'0 0.0
2018-Jun-20 22:26N 44°06' E 028°40'0 0.0
2018-Jun-20 21:59N 44°06' E 028°40'0 0.0
2018-Jun-20 21:29N 44°06' E 028°40'0 0.0
2018-Jun-20 20:59N 44°06' E 028°40'0 0.0
2018-Jun-20 20:29N 44°06' E 028°40'0 0.0
2018-Jun-20 19:59N 44°06' E 028°40'0 0.0
2018-Jun-20 19:29N 44°06' E 028°40'0 0.0
2018-Jun-20 18:56N 44°06' E 028°40'0 0.0
2018-Jun-20 18:26N 44°06' E 028°40'0 0.0
2018-Jun-20 17:59N 44°06' E 028°40'0 0.0
2018-Jun-20 17:29N 44°06' E 028°40'0 0.0
2018-Jun-20 16:59N 44°06' E 028°40'0 0.0
2018-Jun-20 16:29N 44°06' E 028°40'0 0.0
2018-Jun-20 15:59N 44°06' E 028°40'0 0.0
2018-Jun-20 15:29N 44°06' E 028°40'0 0.0
2018-Jun-20 14:59N 44°06' E 028°40'0 0.0
2018-Jun-20 14:29N 44°06' E 028°40'0 0.0
2018-Jun-20 13:59N 44°06' E 028°40'0 0.0
2018-Jun-20 13:30N 44°06' E 028°40'0 0.4
2018-Jun-20 13:00N 44°06' E 028°40'2 3.4
2018-Jun-20 12:30N 44°06' E 028°42'3 6.9
2018-Jun-20 12:01N 44°03' E 028°46'4 7.7
2018-Jun-20 11:30N 44°00' E 028°49'4 7.1
2018-Jun-20 10:58N 43°57' E 028°50'3 7.2
2018-Jun-20 10:29N 43°53' E 028°51'13 7.1
2018-Jun-20 08:38N 43°40' E 028°53'27 7.6
2018-Jun-20 05:05N 43°13' E 028°57'1 8.2
2018-Jun-20 04:58N 43°12' E 028°57'4 8.2
2018-Jun-20 04:29N 43°09' E 028°57'4 7.9
2018-Jun-20 04:00N 43°05' E 028°58'4 7.5
2018-Jun-20 03:27N 43°01' E 028°58'3 7.2
2018-Jun-20 03:01N 42°58' E 028°59'4 7.0
2018-Jun-20 02:30N 42°54' E 028°59'3 6.9
2018-Jun-20 02:00N 42°51' E 028°60'3 6.9
2018-Jun-20 01:31N 42°47' E 029°01'4 7.0
2018-Jun-20 01:00N 42°44' E 029°01'14 7.2
2018-Jun-19 23:04N 42°30' E 029°04'1 7.2
2018-Jun-19 22:57N 42°29' E 029°04'5 6.7
2018-Jun-19 22:16N 42°24' E 029°04'6 7.2
2018-Jun-19 21:29N 42°19' E 029°05'9 7.1
2018-Jun-19 20:16N 42°10' E 029°06'2 7.1
2018-Jun-19 20:00N 42°08' E 029°06'10 6.9
2018-Jun-19 18:35N 41°59' E 029°08'1 6.4
2018-Jun-19 18:26N 41°58' E 029°08'6 6.3
2018-Jun-19 17:30N 41°52' E 029°09'3 6.3
2018-Jun-19 17:01N 41°49' E 029°09'  
Track history (hours):
 
Tides and Currents Weather Stations Pressure Air Temp Water Temp Dewpoint Dewpoint Depression Visibility Wind Speed Wind Dir Waves Ship Positions

Zara

Last reported at 2018-Jun-23 00:04 UTC. Time now 2018-Jun-23 00:38 UTC.
Position N 44°01' E 029°35'.

; draft 7.7 m.

MMSI: 671741000.

Date/timePositionNaut miles runAvg speedWind from/ knotsBaromVisibWave heightAir tempDewpointWater temp
2018-Jun-23 00:04N 44°01' E 029°35'1 9.6
2018-Jun-22 23:59N 44°01' E 029°34'5 9.7
2018-Jun-22 23:30N 44°01' E 029°28'5 9.7
2018-Jun-22 23:00N 44°01' E 029°21'5 9.7
2018-Jun-22 22:30N 44°01' E 029°14'5 9.8
2018-Jun-22 22:00N 44°00' E 029°07'5 9.6
2018-Jun-22 21:30N 43°60' E 029°01'5 9.9
2018-Jun-22 21:00N 43°59' E 028°54'5 9.0
2018-Jun-22 20:30N 43°59' E 028°48'510.3
2018-Jun-22 20:00N 44°04' E 028°44'3 6.8
2018-Jun-22 19:30N 44°06' E 028°41'0 1.0
2018-Jun-22 19:00N 44°06' E 028°40'0 0.0
2018-Jun-22 18:30N 44°06' E 028°40'0 0.0
2018-Jun-22 18:00N 44°06' E 028°40'0 0.0
2018-Jun-22 17:27N 44°06' E 028°40'0 0.0
2018-Jun-22 17:00N 44°06' E 028°40'0 0.0
2018-Jun-22 16:30N 44°06' E 028°40'0 0.0
2018-Jun-22 15:57N 44°06' E 028°40'0 0.0
2018-Jun-22 15:27N 44°06' E 028°40'0 0.0
2018-Jun-22 15:00N 44°06' E 028°40'0 0.0
2018-Jun-22 14:30N 44°06' E 028°40'0 0.0
2018-Jun-22 14:00N 44°06' E 028°40'0 0.0
2018-Jun-22 13:30N 44°06' E 028°40'0 0.0
2018-Jun-22 13:00N 44°06' E 028°40'0 0.0
2018-Jun-22 12:30N 44°06' E 028°40'0 0.0
2018-Jun-22 12:00N 44°06' E 028°40'0 0.0
2018-Jun-22 11:30N 44°06' E 028°40'0 0.0
2018-Jun-22 11:00N 44°06' E 028°40'0 0.0
2018-Jun-22 10:30N 44°06' E 028°40'0 0.0
2018-Jun-22 10:00N 44°06' E 028°40'0 0.0
2018-Jun-22 09:30N 44°06' E 028°40'0 0.0
2018-Jun-22 09:00N 44°06' E 028°40'0 0.0
2018-Jun-22 08:30N 44°06' E 028°40'0 0.0
2018-Jun-22 08:00N 44°06' E 028°40'0 0.0
2018-Jun-22 07:30N 44°06' E 028°40'0 0.0
2018-Jun-22 07:00N 44°06' E 028°40'0 0.0
2018-Jun-22 06:27N 44°06' E 028°40'0 0.0
2018-Jun-22 06:00N 44°06' E 028°40'0 0.0
2018-Jun-22 05:30N 44°06' E 028°40'0 0.0
2018-Jun-22 05:00N 44°06' E 028°40'0 0.0
2018-Jun-22 04:30N 44°06' E 028°40'0 0.0
2018-Jun-22 04:00N 44°06' E 028°40'0 0.0
2018-Jun-22 03:30N 44°06' E 028°40'0 0.0
2018-Jun-22 03:00N 44°06' E 028°40'0 0.0
2018-Jun-22 02:27N 44°06' E 028°40'0 0.0
2018-Jun-22 02:00N 44°06' E 028°40'0 0.0
2018-Jun-22 01:30N 44°06' E 028°40'0 0.0
2018-Jun-22 01:00N 44°06' E 028°40'0 0.0
2018-Jun-22 00:30N 44°06' E 028°40'0 0.0
2018-Jun-22 00:00N 44°06' E 028°40'0 0.0
2018-Jun-21 23:30N 44°06' E 028°40'0 0.0
2018-Jun-21 23:00N 44°06' E 028°40'0 0.0
2018-Jun-21 22:30N 44°06' E 028°40'0 0.0
2018-Jun-21 22:00N 44°06' E 028°40'0 0.0
2018-Jun-21 21:30N 44°06' E 028°40'0 0.0
2018-Jun-21 21:00N 44°06' E 028°40'0 0.0
2018-Jun-21 20:30N 44°06' E 028°40'0 0.0
2018-Jun-21 20:00N 44°06' E 028°40'0 0.0
2018-Jun-21 19:27N 44°06' E 028°40'0 0.0
2018-Jun-21 18:59N 44°06' E 028°40'0 0.0
2018-Jun-21 18:29N 44°06' E 028°40'0 0.0
2018-Jun-21 17:59N 44°06' E 028°40'0 0.0
2018-Jun-21 17:29N 44°06' E 028°40'0 0.0
2018-Jun-21 16:59N 44°06' E 028°40'0 0.0
2018-Jun-21 16:29N 44°06' E 028°40'0 0.0
2018-Jun-21 15:59N 44°06' E 028°40'0 0.0
2018-Jun-21 15:29N 44°06' E 028°40'0 0.0
2018-Jun-21 14:59N 44°06' E 028°40'0 0.0
2018-Jun-21 14:29N 44°06' E 028°40'0 0.0
2018-Jun-21 13:59N 44°06' E 028°40'0 0.0
2018-Jun-21 13:29N 44°06' E 028°40'0 0.0
2018-Jun-21 12:56N 44°06' E 028°40'0 0.0
2018-Jun-21 12:29N 44°06' E 028°40'0 0.0
2018-Jun-21 11:59N 44°06' E 028°40'0 0.0
2018-Jun-21 11:29N 44°06' E 028°40'0 0.0
2018-Jun-21 10:59N 44°06' E 028°40'0 0.0
2018-Jun-21 10:26N 44°06' E 028°40'0 0.0
2018-Jun-21 09:59N 44°06' E 028°40'0 0.0
2018-Jun-21 09:29N 44°06' E 028°40'0 0.0
2018-Jun-21 08:59N 44°06' E 028°40'0 0.0
2018-Jun-21 08:29N 44°06' E 028°40'0 0.0
2018-Jun-21 07:56N 44°06' E 028°40'0 0.0
2018-Jun-21 07:29N 44°06' E 028°40'0 0.0
2018-Jun-21 06:59N 44°06' E 028°40'0 0.0
2018-Jun-21 06:29N 44°06' E 028°40'0 0.0
2018-Jun-21 05:59N 44°06' E 028°40'0 0.0
2018-Jun-21 05:29N 44°06' E 028°40'0 0.0
2018-Jun-21 04:59N 44°06' E 028°40'0 0.0
2018-Jun-21 04:29N 44°06' E 028°40'0 0.0
2018-Jun-21 03:59N 44°06' E 028°40'0 0.0
2018-Jun-21 03:29N 44°06' E 028°40'0 0.0
2018-Jun-21 02:59N 44°06' E 028°40'0 0.0
2018-Jun-21 02:29N 44°06' E 028°40'0 0.0
2018-Jun-21 01:56N 44°06' E 028°40'0 0.0
2018-Jun-21 01:29N 44°06' E 028°40'0 0.0
2018-Jun-21 00:59N 44°06' E 028°40'0 0.0
2018-Jun-21 00:26N 44°06' E 028°40'0 0.0
2018-Jun-20 23:59N 44°06' E 028°40'0 0.0
2018-Jun-20 23:29N 44°06' E 028°40'0 0.0
2018-Jun-20 22:59N 44°06' E 028°40'0 0.0
2018-Jun-20 22:26N 44°06' E 028°40'0 0.0
2018-Jun-20 21:59N 44°06' E 028°40'0 0.0
2018-Jun-20 21:29N 44°06' E 028°40'0 0.0
2018-Jun-20 20:59N 44°06' E 028°40'0 0.0
2018-Jun-20 20:29N 44°06' E 028°40'0 0.0
2018-Jun-20 19:59N 44°06' E 028°40'0 0.0
2018-Jun-20 19:29N 44°06' E 028°40'0 0.0
2018-Jun-20 18:56N 44°06' E 028°40'0 0.0
2018-Jun-20 18:26N 44°06' E 028°40'0 0.0
2018-Jun-20 17:59N 44°06' E 028°40'0 0.0
2018-Jun-20 17:29N 44°06' E 028°40'0 0.0
2018-Jun-20 16:59N 44°06' E 028°40'0 0.0
2018-Jun-20 16:29N 44°06' E 028°40'0 0.0
2018-Jun-20 15:59N 44°06' E 028°40'0 0.0
2018-Jun-20 15:29N 44°06' E 028°40'0 0.0
2018-Jun-20 14:59N 44°06' E 028°40'0 0.0
2018-Jun-20 14:29N 44°06' E 028°40'0 0.0
2018-Jun-20 13:59N 44°06' E 028°40'0 0.0
2018-Jun-20 13:30N 44°06' E 028°40'0 0.4
2018-Jun-20 13:00N 44°06' E 028°40'2 3.4
2018-Jun-20 12:30N 44°06' E 028°42'3 6.9
2018-Jun-20 12:01N 44°03' E 028°46'4 7.7
2018-Jun-20 11:30N 44°00' E 028°49'4 7.1
2018-Jun-20 10:58N 43°57' E 028°50'3 7.2
2018-Jun-20 10:29N 43°53' E 028°51'13 7.1
2018-Jun-20 08:38N 43°40' E 028°53'27 7.6
2018-Jun-20 05:05N 43°13' E 028°57'1 8.2
2018-Jun-20 04:58N 43°12' E 028°57'4 8.2
2018-Jun-20 04:29N 43°09' E 028°57'4 7.9
2018-Jun-20 04:00N 43°05' E 028°58'4 7.5
2018-Jun-20 03:27N 43°01' E 028°58'3 7.2
2018-Jun-20 03:01N 42°58' E 028°59'4 7.0
2018-Jun-20 02:30N 42°54' E 028°59'3 6.9
2018-Jun-20 02:00N 42°51' E 028°60'3 6.9
2018-Jun-20 01:31N 42°47' E 029°01'4 7.0
2018-Jun-20 01:00N 42°44' E 029°01'14 7.2
2018-Jun-19 23:04N 42°30' E 029°04'1 7.2
2018-Jun-19 22:57N 42°29' E 029°04'5 6.7
2018-Jun-19 22:16N 42°24' E 029°04'6 7.2
2018-Jun-19 21:29N 42°19' E 029°05'9 7.1
2018-Jun-19 20:16N 42°10' E 029°06'2 7.1
2018-Jun-19 20:00N 42°08' E 029°06'10 6.9
2018-Jun-19 18:35N 41°59' E 029°08'1 6.4
2018-Jun-19 18:26N 41°58' E 029°08'6 6.3
2018-Jun-19 17:30N 41°52' E 029°09'3 6.3
2018-Jun-19 17:01N 41°49' E 029°09'  

Dump ship's entire track history